sensor_id;sensor_type;location;lat;lon;timestamp;P1;durP1;ratioP1;P2;durP2;ratioP2
51800;SDS011;37855;53.204;6.568;2024-02-15T00:02:22;35.58;;;12.13;;
51800;SDS011;37855;53.204;6.568;2024-02-15T00:04:49;33.33;;;12.63;;
51800;SDS011;37855;53.204;6.568;2024-02-15T00:07:15;31.70;;;12.55;;
51800;SDS011;37855;53.204;6.568;2024-02-15T00:09:40;34.33;;;12.50;;
51800;SDS011;37855;53.204;6.568;2024-02-15T00:12:06;35.00;;;12.37;;
51800;SDS011;37855;53.204;6.568;2024-02-15T00:14:32;34.10;;;12.63;;
51800;SDS011;37855;53.204;6.568;2024-02-15T00:16:58;39.53;;;14.18;;
51800;SDS011;37855;53.204;6.568;2024-02-15T00:19:24;40.92;;;12.77;;
51800;SDS011;37855;53.204;6.568;2024-02-15T00:21:50;33.73;;;13.83;;
51800;SDS011;37855;53.204;6.568;2024-02-15T00:24:16;30.80;;;13.63;;
51800;SDS011;37855;53.204;6.568;2024-02-15T00:26:42;37.43;;;13.27;;
51800;SDS011;37855;53.204;6.568;2024-02-15T00:29:08;36.67;;;13.55;;
51800;SDS011;37855;53.204;6.568;2024-02-15T00:31:35;38.00;;;13.05;;
51800;SDS011;37855;53.204;6.568;2024-02-15T00:34:00;42.17;;;13.70;;
51800;SDS011;37855;53.204;6.568;2024-02-15T00:36:29;39.03;;;14.60;;
51800;SDS011;37855;53.204;6.568;2024-02-15T00:38:55;37.27;;;12.80;;
51800;SDS011;37855;53.204;6.568;2024-02-15T00:41:22;35.78;;;13.77;;
51800;SDS011;37855;53.204;6.568;2024-02-15T00:43:50;41.10;;;13.90;;
51800;SDS011;37855;53.204;6.568;2024-02-15T00:46:16;34.87;;;12.87;;
51800;SDS011;37855;53.204;6.568;2024-02-15T00:48:43;41.55;;;12.73;;
51800;SDS011;37855;53.204;6.568;2024-02-15T00:51:09;38.20;;;12.93;;
51800;SDS011;37855;53.204;6.568;2024-02-15T00:53:34;37.07;;;12.20;;
51800;SDS011;37855;53.204;6.568;2024-02-15T00:56:00;32.43;;;11.93;;
51800;SDS011;37855;53.204;6.568;2024-02-15T00:58:29;38.85;;;13.30;;
51800;SDS011;37855;53.204;6.568;2024-02-15T01:00:55;39.15;;;12.77;;
51800;SDS011;37855;53.204;6.568;2024-02-15T01:03:21;35.87;;;13.53;;
51800;SDS011;37855;53.204;6.568;2024-02-15T01:05:47;34.63;;;12.50;;
51800;SDS011;37855;53.204;6.568;2024-02-15T01:08:12;32.83;;;12.90;;
51800;SDS011;37855;53.204;6.568;2024-02-15T01:10:38;34.78;;;12.20;;
51800;SDS011;37855;53.204;6.568;2024-02-15T01:13:04;32.83;;;12.40;;
51800;SDS011;37855;53.204;6.568;2024-02-15T01:15:29;34.95;;;12.15;;
51800;SDS011;37855;53.204;6.568;2024-02-15T01:17:55;40.23;;;12.73;;
51800;SDS011;37855;53.204;6.568;2024-02-15T01:20:21;34.60;;;12.70;;
51800;SDS011;37855;53.204;6.568;2024-02-15T01:22:46;34.07;;;12.80;;
51800;SDS011;37855;53.204;6.568;2024-02-15T01:25:12;37.45;;;13.57;;
51800;SDS011;37855;53.204;6.568;2024-02-15T01:27:40;35.92;;;12.48;;
51800;SDS011;37855;53.204;6.568;2024-02-15T01:30:07;33.60;;;13.03;;
51800;SDS011;37855;53.204;6.568;2024-02-15T01:32:34;35.38;;;12.40;;
51800;SDS011;37855;53.204;6.568;2024-02-15T01:35:02;32.17;;;13.10;;
51800;SDS011;37855;53.204;6.568;2024-02-15T01:37:30;31.20;;;12.70;;
51800;SDS011;37855;53.204;6.568;2024-02-15T01:39:55;32.28;;;11.65;;
51800;SDS011;37855;53.204;6.568;2024-02-15T01:42:21;24.33;;;12.53;;
51800;SDS011;37855;53.204;6.568;2024-02-15T01:44:46;29.20;;;12.23;;
51800;SDS011;37855;53.204;6.568;2024-02-15T01:47:14;37.78;;;13.90;;
51800;SDS011;37855;53.204;6.568;2024-02-15T01:49:42;27.85;;;12.23;;
51800;SDS011;37855;53.204;6.568;2024-02-15T01:52:08;28.77;;;11.77;;
51800;SDS011;37855;53.204;6.568;2024-02-15T01:54:34;34.30;;;13.23;;
51800;SDS011;37855;53.204;6.568;2024-02-15T01:57:03;29.95;;;11.93;;
51800;SDS011;37855;53.204;6.568;2024-02-15T01:59:30;31.90;;;11.88;;
51800;SDS011;37855;53.204;6.568;2024-02-15T02:01:58;26.10;;;11.57;;
51800;SDS011;37855;53.204;6.568;2024-02-15T02:04:24;27.83;;;11.10;;
51800;SDS011;37855;53.204;6.568;2024-02-15T02:06:50;27.38;;;11.32;;
51800;SDS011;37855;53.204;6.568;2024-02-15T02:09:16;27.33;;;11.27;;
51800;SDS011;37855;53.204;6.568;2024-02-15T02:11:43;26.98;;;11.02;;
51800;SDS011;37855;53.204;6.568;2024-02-15T02:14:11;26.05;;;9.85;;
51800;SDS011;37855;53.204;6.568;2024-02-15T02:16:36;24.87;;;10.00;;
51800;SDS011;37855;53.204;6.568;2024-02-15T02:19:04;27.35;;;10.50;;
51800;SDS011;37855;53.204;6.568;2024-02-15T02:21:34;23.73;;;10.40;;
51800;SDS011;37855;53.204;6.568;2024-02-15T02:24:04;25.60;;;10.15;;
51800;SDS011;37855;53.204;6.568;2024-02-15T02:26:37;26.60;;;9.95;;
51800;SDS011;37855;53.204;6.568;2024-02-15T02:29:06;25.23;;;9.50;;
51800;SDS011;37855;53.204;6.568;2024-02-15T02:31:35;25.77;;;9.90;;
51800;SDS011;37855;53.204;6.568;2024-02-15T02:34:01;23.50;;;9.13;;
51800;SDS011;37855;53.204;6.568;2024-02-15T02:36:34;23.97;;;8.67;;
51800;SDS011;37855;53.204;6.568;2024-02-15T02:39:04;24.15;;;8.60;;
51800;SDS011;37855;53.204;6.568;2024-02-15T02:41:29;22.58;;;8.77;;
51800;SDS011;37855;53.204;6.568;2024-02-15T02:43:55;22.10;;;8.73;;
51800;SDS011;37855;53.204;6.568;2024-02-15T02:46:22;20.05;;;8.27;;
51800;SDS011;37855;53.204;6.568;2024-02-15T02:48:48;21.00;;;9.15;;
51800;SDS011;37855;53.204;6.568;2024-02-15T02:51:14;19.57;;;8.60;;
51800;SDS011;37855;53.204;6.568;2024-02-15T02:53:40;19.23;;;7.78;;
51800;SDS011;37855;53.204;6.568;2024-02-15T02:56:09;25.63;;;9.10;;
51800;SDS011;37855;53.204;6.568;2024-02-15T02:58:35;21.50;;;8.35;;
51800;SDS011;37855;53.204;6.568;2024-02-15T03:01:01;17.92;;;7.43;;
51800;SDS011;37855;53.204;6.568;2024-02-15T03:03:27;18.63;;;7.18;;
51800;SDS011;37855;53.204;6.568;2024-02-15T03:05:52;16.67;;;7.83;;
51800;SDS011;37855;53.204;6.568;2024-02-15T03:08:19;21.67;;;7.60;;
51800;SDS011;37855;53.204;6.568;2024-02-15T03:10:45;20.40;;;8.30;;
51800;SDS011;37855;53.204;6.568;2024-02-15T03:13:11;17.27;;;7.47;;
51800;SDS011;37855;53.204;6.568;2024-02-15T03:15:37;21.92;;;7.57;;
51800;SDS011;37855;53.204;6.568;2024-02-15T03:18:04;22.55;;;7.78;;
51800;SDS011;37855;53.204;6.568;2024-02-15T03:20:32;17.63;;;7.60;;
51800;SDS011;37855;53.204;6.568;2024-02-15T03:22:59;22.02;;;6.88;;
51800;SDS011;37855;53.204;6.568;2024-02-15T03:25:26;19.17;;;7.05;;
51800;SDS011;37855;53.204;6.568;2024-02-15T03:27:54;15.85;;;7.30;;
51800;SDS011;37855;53.204;6.568;2024-02-15T03:30:21;21.27;;;7.90;;
51800;SDS011;37855;53.204;6.568;2024-02-15T03:32:51;20.70;;;6.83;;
51800;SDS011;37855;53.204;6.568;2024-02-15T03:35:18;18.27;;;6.93;;
51800;SDS011;37855;53.204;6.568;2024-02-15T03:37:45;19.33;;;7.13;;
51800;SDS011;37855;53.204;6.568;2024-02-15T03:40:10;27.33;;;6.90;;
51800;SDS011;37855;53.204;6.568;2024-02-15T03:42:36;22.98;;;6.50;;
51800;SDS011;37855;53.204;6.568;2024-02-15T03:45:03;22.15;;;6.72;;
51800;SDS011;37855;53.204;6.568;2024-02-15T03:47:37;21.00;;;7.30;;
51800;SDS011;37855;53.204;6.568;2024-02-15T03:50:03;25.90;;;7.75;;
51800;SDS011;37855;53.204;6.568;2024-02-15T03:52:29;24.08;;;7.85;;
51800;SDS011;37855;53.204;6.568;2024-02-15T03:54:56;22.00;;;7.03;;
51800;SDS011;37855;53.204;6.568;2024-02-15T03:57:22;24.60;;;7.38;;
51800;SDS011;37855;53.204;6.568;2024-02-15T03:59:49;24.87;;;6.93;;
51800;SDS011;37855;53.204;6.568;2024-02-15T04:02:19;25.58;;;8.13;;
51800;SDS011;37855;53.204;6.568;2024-02-15T04:04:48;30.35;;;7.97;;
51800;SDS011;37855;53.204;6.568;2024-02-15T04:07:17;27.52;;;7.50;;
51800;SDS011;37855;53.204;6.568;2024-02-15T04:09:43;24.83;;;7.30;;
51800;SDS011;37855;53.204;6.568;2024-02-15T04:12:12;25.27;;;7.70;;
51800;SDS011;37855;53.204;6.568;2024-02-15T04:14:39;29.63;;;7.47;;
51800;SDS011;37855;53.204;6.568;2024-02-15T04:17:10;22.67;;;7.55;;
51800;SDS011;37855;53.204;6.568;2024-02-15T04:19:36;28.50;;;7.65;;
51800;SDS011;37855;53.204;6.568;2024-02-15T04:22:02;22.95;;;8.20;;
51800;SDS011;37855;53.204;6.568;2024-02-15T04:24:32;32.07;;;8.20;;
51800;SDS011;37855;53.204;6.568;2024-02-15T04:27:04;27.35;;;8.60;;
51800;SDS011;37855;53.204;6.568;2024-02-15T04:29:33;24.15;;;8.63;;
51800;SDS011;37855;53.204;6.568;2024-02-15T04:31:59;28.55;;;8.18;;
51800;SDS011;37855;53.204;6.568;2024-02-15T04:34:24;27.50;;;8.90;;
51800;SDS011;37855;53.204;6.568;2024-02-15T04:36:51;34.22;;;9.20;;
51800;SDS011;37855;53.204;6.568;2024-02-15T04:39:20;28.63;;;8.67;;
51800;SDS011;37855;53.204;6.568;2024-02-15T04:41:52;25.33;;;8.63;;
51800;SDS011;37855;53.204;6.568;2024-02-15T04:44:19;25.27;;;8.52;;
51800;SDS011;37855;53.204;6.568;2024-02-15T04:46:52;20.95;;;7.75;;
51800;SDS011;37855;53.204;6.568;2024-02-15T04:49:20;24.48;;;8.75;;
51800;SDS011;37855;53.204;6.568;2024-02-15T04:51:47;28.27;;;9.80;;
51800;SDS011;37855;53.204;6.568;2024-02-15T04:54:13;31.40;;;9.90;;
51800;SDS011;37855;53.204;6.568;2024-02-15T04:56:42;31.42;;;10.40;;
51800;SDS011;37855;53.204;6.568;2024-02-15T04:59:11;24.37;;;9.80;;
51800;SDS011;37855;53.204;6.568;2024-02-15T05:01:40;25.83;;;9.63;;
51800;SDS011;37855;53.204;6.568;2024-02-15T05:04:10;22.42;;;10.00;;
51800;SDS011;37855;53.204;6.568;2024-02-15T05:06:37;23.88;;;10.13;;
51800;SDS011;37855;53.204;6.568;2024-02-15T05:09:03;31.27;;;10.90;;
51800;SDS011;37855;53.204;6.568;2024-02-15T05:11:41;25.63;;;10.37;;
51800;SDS011;37855;53.204;6.568;2024-02-15T05:14:11;22.75;;;10.77;;
51800;SDS011;37855;53.204;6.568;2024-02-15T05:16:37;26.88;;;10.65;;
51800;SDS011;37855;53.204;6.568;2024-02-15T05:19:07;28.05;;;11.20;;
51800;SDS011;37855;53.204;6.568;2024-02-15T05:21:39;26.23;;;10.32;;
51800;SDS011;37855;53.204;6.568;2024-02-15T05:24:05;25.53;;;10.83;;
51800;SDS011;37855;53.204;6.568;2024-02-15T05:26:31;23.60;;;11.35;;
51800;SDS011;37855;53.204;6.568;2024-02-15T05:28:57;27.10;;;12.00;;
51800;SDS011;37855;53.204;6.568;2024-02-15T05:31:23;30.17;;;11.80;;
51800;SDS011;37855;53.204;6.568;2024-02-15T05:33:51;28.80;;;12.43;;
51800;SDS011;37855;53.204;6.568;2024-02-15T05:36:18;26.27;;;12.05;;
51800;SDS011;37855;53.204;6.568;2024-02-15T05:38:45;26.65;;;12.48;;
51800;SDS011;37855;53.204;6.568;2024-02-15T05:41:18;24.73;;;13.23;;
51800;SDS011;37855;53.204;6.568;2024-02-15T05:43:45;27.33;;;12.65;;
51800;SDS011;37855;53.204;6.568;2024-02-15T05:46:13;23.05;;;12.40;;
51800;SDS011;37855;53.204;6.568;2024-02-15T05:48:39;27.08;;;13.23;;
51800;SDS011;37855;53.204;6.568;2024-02-15T05:51:05;30.93;;;14.63;;
51800;SDS011;37855;53.204;6.568;2024-02-15T05:53:32;27.90;;;14.27;;
51800;SDS011;37855;53.204;6.568;2024-02-15T05:56:01;26.33;;;14.52;;
51800;SDS011;37855;53.204;6.568;2024-02-15T05:58:34;26.10;;;14.60;;
51800;SDS011;37855;53.204;6.568;2024-02-15T06:01:01;27.58;;;15.13;;
51800;SDS011;37855;53.204;6.568;2024-02-15T06:03:30;34.63;;;14.93;;
51800;SDS011;37855;53.204;6.568;2024-02-15T06:06:03;29.45;;;15.55;;
51800;SDS011;37855;53.204;6.568;2024-02-15T06:08:32;26.38;;;13.98;;
51800;SDS011;37855;53.204;6.568;2024-02-15T06:10:59;33.22;;;15.77;;
51800;SDS011;37855;53.204;6.568;2024-02-15T06:13:25;33.67;;;16.80;;
51800;SDS011;37855;53.204;6.568;2024-02-15T06:15:51;33.28;;;15.75;;
51800;SDS011;37855;53.204;6.568;2024-02-15T06:18:19;28.67;;;15.65;;
51800;SDS011;37855;53.204;6.568;2024-02-15T06:20:47;29.00;;;15.15;;
51800;SDS011;37855;53.204;6.568;2024-02-15T06:23:15;29.63;;;16.35;;
51800;SDS011;37855;53.204;6.568;2024-02-15T06:25:41;31.57;;;16.33;;
51800;SDS011;37855;53.204;6.568;2024-02-15T06:28:07;30.65;;;15.50;;
51800;SDS011;37855;53.204;6.568;2024-02-15T06:30:47;30.15;;;16.75;;
51800;SDS011;37855;53.204;6.568;2024-02-15T06:33:31;29.65;;;16.88;;
51800;SDS011;37855;53.204;6.568;2024-02-15T06:36:15;38.90;;;18.00;;
51800;SDS011;37855;53.204;6.568;2024-02-15T06:39:00;30.13;;;16.27;;
51800;SDS011;37855;53.204;6.568;2024-02-15T06:41:44;35.80;;;17.10;;
51800;SDS011;37855;53.204;6.568;2024-02-15T06:44:10;29.52;;;16.50;;
51800;SDS011;37855;53.204;6.568;2024-02-15T06:46:35;37.27;;;17.93;;
51800;SDS011;37855;53.204;6.568;2024-02-15T06:49:01;34.63;;;17.97;;
51800;SDS011;37855;53.204;6.568;2024-02-15T06:51:29;33.85;;;18.23;;
51800;SDS011;37855;53.204;6.568;2024-02-15T06:53:55;34.38;;;17.50;;
51800;SDS011;37855;53.204;6.568;2024-02-15T06:56:21;33.97;;;18.93;;
51800;SDS011;37855;53.204;6.568;2024-02-15T06:58:47;33.58;;;18.35;;
51800;SDS011;37855;53.204;6.568;2024-02-15T07:01:14;32.17;;;17.50;;
51800;SDS011;37855;53.204;6.568;2024-02-15T07:03:41;34.38;;;17.70;;
51800;SDS011;37855;53.204;6.568;2024-02-15T07:06:09;34.60;;;18.10;;
51800;SDS011;37855;53.204;6.568;2024-02-15T07:08:35;33.03;;;17.50;;
51800;SDS011;37855;53.204;6.568;2024-02-15T07:11:01;32.83;;;18.00;;
51800;SDS011;37855;53.204;6.568;2024-02-15T07:13:29;30.95;;;17.17;;
51800;SDS011;37855;53.204;6.568;2024-02-15T07:15:54;34.00;;;18.83;;
51800;SDS011;37855;53.204;6.568;2024-02-15T07:18:20;32.95;;;18.17;;
51800;SDS011;37855;53.204;6.568;2024-02-15T07:20:47;31.70;;;17.58;;
51800;SDS011;37855;53.204;6.568;2024-02-15T07:23:13;35.37;;;19.77;;
51800;SDS011;37855;53.204;6.568;2024-02-15T07:25:39;30.38;;;17.48;;
51800;SDS011;37855;53.204;6.568;2024-02-15T07:28:07;36.28;;;18.30;;
51800;SDS011;37855;53.204;6.568;2024-02-15T07:30:34;36.55;;;18.63;;
51800;SDS011;37855;53.204;6.568;2024-02-15T07:32:59;34.60;;;18.70;;
51800;SDS011;37855;53.204;6.568;2024-02-15T07:38:00;36.47;;;17.67;;
51800;SDS011;37855;53.204;6.568;2024-02-15T07:40:30;35.72;;;18.67;;
51800;SDS011;37855;53.204;6.568;2024-02-15T07:42:59;34.53;;;17.67;;
51800;SDS011;37855;53.204;6.568;2024-02-15T07:45:24;37.37;;;18.00;;
51800;SDS011;37855;53.204;6.568;2024-02-15T07:47:50;38.53;;;18.65;;
51800;SDS011;37855;53.204;6.568;2024-02-15T07:50:17;36.73;;;17.10;;
51800;SDS011;37855;53.204;6.568;2024-02-15T07:52:46;31.38;;;17.30;;
51800;SDS011;37855;53.204;6.568;2024-02-15T07:55:13;36.10;;;18.30;;
51800;SDS011;37855;53.204;6.568;2024-02-15T07:57:38;30.80;;;16.95;;
51800;SDS011;37855;53.204;6.568;2024-02-15T08:00:04;33.87;;;17.80;;
51800;SDS011;37855;53.204;6.568;2024-02-15T08:02:35;32.15;;;17.23;;
51800;SDS011;37855;53.204;6.568;2024-02-15T08:05:05;30.30;;;16.48;;
51800;SDS011;37855;53.204;6.568;2024-02-15T08:07:35;34.92;;;16.73;;
51800;SDS011;37855;53.204;6.568;2024-02-15T08:10:06;31.00;;;16.20;;
51800;SDS011;37855;53.204;6.568;2024-02-15T08:12:38;34.08;;;16.88;;
51800;SDS011;37855;53.204;6.568;2024-02-15T08:15:08;32.35;;;17.35;;
51800;SDS011;37855;53.204;6.568;2024-02-15T08:17:43;29.02;;;15.52;;
51800;SDS011;37855;53.204;6.568;2024-02-15T08:20:12;30.23;;;16.23;;
51800;SDS011;37855;53.204;6.568;2024-02-15T08:22:39;30.70;;;15.97;;
51800;SDS011;37855;53.204;6.568;2024-02-15T08:25:09;35.08;;;16.33;;
51800;SDS011;37855;53.204;6.568;2024-02-15T08:27:39;25.60;;;14.70;;
51800;SDS011;37855;53.204;6.568;2024-02-15T08:30:13;32.00;;;14.77;;
51800;SDS011;37855;53.204;6.568;2024-02-15T08:32:39;29.95;;;15.40;;
51800;SDS011;37855;53.204;6.568;2024-02-15T08:35:07;25.80;;;13.70;;
51800;SDS011;37855;53.204;6.568;2024-02-15T08:37:37;26.95;;;14.07;;
51800;SDS011;37855;53.204;6.568;2024-02-15T08:40:07;31.20;;;14.52;;
51800;SDS011;37855;53.204;6.568;2024-02-15T08:42:37;24.13;;;13.55;;
51800;SDS011;37855;53.204;6.568;2024-02-15T08:45:06;27.00;;;13.30;;
51800;SDS011;37855;53.204;6.568;2024-02-15T08:47:39;28.43;;;13.77;;
51800;SDS011;37855;53.204;6.568;2024-02-15T08:50:06;28.65;;;13.85;;
51800;SDS011;37855;53.204;6.568;2024-02-15T08:52:34;26.38;;;13.82;;
51800;SDS011;37855;53.204;6.568;2024-02-15T08:55:04;26.42;;;12.80;;
51800;SDS011;37855;53.204;6.568;2024-02-15T08:57:34;25.13;;;13.85;;
51800;SDS011;37855;53.204;6.568;2024-02-15T09:00:01;22.37;;;11.73;;
51800;SDS011;37855;53.204;6.568;2024-02-15T09:02:30;22.23;;;12.20;;
51800;SDS011;37855;53.204;6.568;2024-02-15T09:04:59;28.55;;;12.52;;
51800;SDS011;37855;53.204;6.568;2024-02-15T09:07:24;27.17;;;12.40;;
51800;SDS011;37855;53.204;6.568;2024-02-15T09:09:53;26.77;;;12.40;;
51800;SDS011;37855;53.204;6.568;2024-02-15T09:12:20;23.55;;;12.82;;
51800;SDS011;37855;53.204;6.568;2024-02-15T09:14:49;26.60;;;12.07;;
51800;SDS011;37855;53.204;6.568;2024-02-15T09:17:14;22.10;;;12.30;;
51800;SDS011;37855;53.204;6.568;2024-02-15T09:19:40;25.97;;;12.83;;
51800;SDS011;37855;53.204;6.568;2024-02-15T09:22:06;21.30;;;11.50;;
51800;SDS011;37855;53.204;6.568;2024-02-15T09:24:36;27.50;;;12.88;;
51800;SDS011;37855;53.204;6.568;2024-02-15T09:27:13;19.03;;;10.73;;
51800;SDS011;37855;53.204;6.568;2024-02-15T09:29:39;21.25;;;10.75;;
51800;SDS011;37855;53.204;6.568;2024-02-15T09:32:08;21.05;;;11.13;;
51800;SDS011;37855;53.204;6.568;2024-02-15T09:34:34;20.27;;;11.70;;
51800;SDS011;37855;53.204;6.568;2024-02-15T09:36:59;20.83;;;11.07;;
51800;SDS011;37855;53.204;6.568;2024-02-15T09:39:25;19.07;;;11.10;;
51800;SDS011;37855;53.204;6.568;2024-02-15T09:41:52;20.88;;;11.90;;
51800;SDS011;37855;53.204;6.568;2024-02-15T09:44:24;20.75;;;10.98;;
51800;SDS011;37855;53.204;6.568;2024-02-15T09:46:55;20.83;;;11.27;;
51800;SDS011;37855;53.204;6.568;2024-02-15T09:49:28;21.38;;;11.77;;
51800;SDS011;37855;53.204;6.568;2024-02-15T09:52:09;18.20;;;10.53;;
51800;SDS011;37855;53.204;6.568;2024-02-15T09:54:44;16.48;;;10.75;;
51800;SDS011;37855;53.204;6.568;2024-02-15T09:57:10;22.08;;;11.73;;
51800;SDS011;37855;53.204;6.568;2024-02-15T09:59:39;20.27;;;10.77;;
51800;SDS011;37855;53.204;6.568;2024-02-15T10:02:06;18.67;;;11.05;;
51800;SDS011;37855;53.204;6.568;2024-02-15T10:04:36;17.07;;;11.17;;
51800;SDS011;37855;53.204;6.568;2024-02-15T10:07:04;18.63;;;11.20;;
51800;SDS011;37855;53.204;6.568;2024-02-15T10:09:30;22.00;;;12.52;;
51800;SDS011;37855;53.204;6.568;2024-02-15T10:14:25;20.08;;;11.02;;
51800;SDS011;37855;53.204;6.568;2024-02-15T10:16:52;20.45;;;10.95;;
51800;SDS011;37855;53.204;6.568;2024-02-15T10:19:19;18.55;;;10.35;;
51800;SDS011;37855;53.204;6.568;2024-02-15T10:21:53;17.85;;;10.73;;
51800;SDS011;37855;53.204;6.568;2024-02-15T10:24:20;15.97;;;9.73;;
51800;SDS011;37855;53.204;6.568;2024-02-15T10:26:49;17.42;;;9.68;;
51800;SDS011;37855;53.204;6.568;2024-02-15T10:29:15;14.50;;;9.65;;
51800;SDS011;37855;53.204;6.568;2024-02-15T10:31:57;16.95;;;9.68;;
51800;SDS011;37855;53.204;6.568;2024-02-15T10:34:25;15.15;;;8.57;;
51800;SDS011;37855;53.204;6.568;2024-02-15T10:36:53;15.17;;;8.33;;
51800;SDS011;37855;53.204;6.568;2024-02-15T10:39:21;12.65;;;8.55;;
51800;SDS011;37855;53.204;6.568;2024-02-15T10:44:19;13.18;;;7.93;;
51800;SDS011;37855;53.204;6.568;2024-02-15T10:46:46;12.93;;;7.85;;
51800;SDS011;37855;53.204;6.568;2024-02-15T10:49:16;12.47;;;7.43;;
51800;SDS011;37855;53.204;6.568;2024-02-15T10:51:43;11.95;;;7.50;;
51800;SDS011;37855;53.204;6.568;2024-02-15T10:54:11;12.63;;;7.55;;
51800;SDS011;37855;53.204;6.568;2024-02-15T10:56:43;12.68;;;6.82;;
51800;SDS011;37855;53.204;6.568;2024-02-15T10:59:18;11.07;;;6.90;;
51800;SDS011;37855;53.204;6.568;2024-02-15T11:01:48;12.33;;;7.67;;
51800;SDS011;37855;53.204;6.568;2024-02-15T11:04:16;11.15;;;7.07;;
51800;SDS011;37855;53.204;6.568;2024-02-15T11:06:47;13.00;;;7.45;;
51800;SDS011;37855;53.204;6.568;2024-02-15T11:09:16;11.80;;;7.38;;
51800;SDS011;37855;53.204;6.568;2024-02-15T11:11:43;10.48;;;6.82;;
51800;SDS011;37855;53.204;6.568;2024-02-15T11:14:30;11.17;;;6.60;;
51800;SDS011;37855;53.204;6.568;2024-02-15T11:17:00;10.18;;;6.70;;
51800;SDS011;37855;53.204;6.568;2024-02-15T11:21:57;9.30;;;6.00;;
51800;SDS011;37855;53.204;6.568;2024-02-15T11:24:30;10.17;;;6.57;;
51800;SDS011;37855;53.204;6.568;2024-02-15T11:27:04;9.00;;;5.57;;
51800;SDS011;37855;53.204;6.568;2024-02-15T11:29:47;9.43;;;5.22;;
51800;SDS011;37855;53.204;6.568;2024-02-15T11:35:19;9.32;;;4.88;;
51800;SDS011;37855;53.204;6.568;2024-02-15T11:42:55;7.47;;;3.92;;
51800;SDS011;37855;53.204;6.568;2024-02-15T11:45:25;8.23;;;4.45;;
51800;SDS011;37855;53.204;6.568;2024-02-15T11:48:10;7.13;;;4.20;;
51800;SDS011;37855;53.204;6.568;2024-02-15T11:50:37;6.20;;;4.03;;
51800;SDS011;37855;53.204;6.568;2024-02-15T11:53:04;5.90;;;3.95;;
51800;SDS011;37855;53.204;6.568;2024-02-15T11:55:34;6.32;;;3.80;;
51800;SDS011;37855;53.204;6.568;2024-02-15T11:58:00;5.80;;;3.88;;
51800;SDS011;37855;53.204;6.568;2024-02-15T12:00:37;5.80;;;3.87;;
51800;SDS011;37855;53.204;6.568;2024-02-15T12:03:22;6.55;;;3.20;;
51800;SDS011;37855;53.204;6.568;2024-02-15T12:06:07;5.82;;;3.60;;
51800;SDS011;37855;53.204;6.568;2024-02-15T12:08:52;6.57;;;3.33;;
51800;SDS011;37855;53.204;6.568;2024-02-15T12:11:37;5.57;;;3.10;;
51800;SDS011;37855;53.204;6.568;2024-02-15T12:14:22;5.60;;;3.20;;
51800;SDS011;37855;53.204;6.568;2024-02-15T12:17:07;5.85;;;3.10;;
51800;SDS011;37855;53.204;6.568;2024-02-15T12:19:55;5.90;;;3.47;;
51800;SDS011;37855;53.204;6.568;2024-02-15T12:22:28;5.70;;;3.03;;
51800;SDS011;37855;53.204;6.568;2024-02-15T12:25:05;6.82;;;3.50;;
51800;SDS011;37855;53.204;6.568;2024-02-15T12:27:55;6.13;;;3.30;;
51800;SDS011;37855;53.204;6.568;2024-02-15T12:30:22;5.40;;;3.30;;
51800;SDS011;37855;53.204;6.568;2024-02-15T12:32:51;5.57;;;3.38;;
51800;SDS011;37855;53.204;6.568;2024-02-15T12:35:18;6.20;;;3.30;;
51800;SDS011;37855;53.204;6.568;2024-02-15T12:37:45;6.50;;;3.88;;
51800;SDS011;37855;53.204;6.568;2024-02-15T12:40:12;7.50;;;3.80;;
51800;SDS011;37855;53.204;6.568;2024-02-15T12:42:43;6.90;;;4.43;;
51800;SDS011;37855;53.204;6.568;2024-02-15T12:45:19;7.25;;;4.07;;
51800;SDS011;37855;53.204;6.568;2024-02-15T12:47:55;7.38;;;4.20;;
51800;SDS011;37855;53.204;6.568;2024-02-15T12:50:22;7.30;;;4.47;;
51800;SDS011;37855;53.204;6.568;2024-02-15T12:52:53;9.70;;;5.13;;
51800;SDS011;37855;53.204;6.568;2024-02-15T12:55:21;11.13;;;5.25;;
51800;SDS011;37855;53.204;6.568;2024-02-15T12:57:54;9.40;;;5.68;;
51800;SDS011;37855;53.204;6.568;2024-02-15T13:00:22;8.93;;;5.53;;
51800;SDS011;37855;53.204;6.568;2024-02-15T13:02:53;9.00;;;5.53;;
51800;SDS011;37855;53.204;6.568;2024-02-15T13:05:26;8.17;;;5.73;;
51800;SDS011;37855;53.204;6.568;2024-02-15T13:07:53;9.85;;;5.80;;
51800;SDS011;37855;53.204;6.568;2024-02-15T13:10:35;10.38;;;6.35;;
51800;SDS011;37855;53.204;6.568;2024-02-15T13:13:01;9.98;;;6.70;;
51800;SDS011;37855;53.204;6.568;2024-02-15T13:15:27;11.38;;;7.25;;
51800;SDS011;37855;53.204;6.568;2024-02-15T13:17:59;13.07;;;6.77;;
51800;SDS011;37855;53.204;6.568;2024-02-15T13:20:25;11.07;;;7.13;;
51800;SDS011;37855;53.204;6.568;2024-02-15T13:22:59;13.20;;;7.28;;
51800;SDS011;37855;53.204;6.568;2024-02-15T13:25:30;13.15;;;7.25;;
51800;SDS011;37855;53.204;6.568;2024-02-15T13:27:59;16.38;;;8.02;;
51800;SDS011;37855;53.204;6.568;2024-02-15T13:30:28;13.53;;;8.10;;
51800;SDS011;37855;53.204;6.568;2024-02-15T13:33:01;13.98;;;8.35;;
51800;SDS011;37855;53.204;6.568;2024-02-15T13:35:28;16.17;;;8.00;;
51800;SDS011;37855;53.204;6.568;2024-02-15T13:37:54;14.20;;;8.43;;
51800;SDS011;37855;53.204;6.568;2024-02-15T13:40:23;14.07;;;8.85;;
51800;SDS011;37855;53.204;6.568;2024-02-15T13:42:50;14.70;;;8.55;;
51800;SDS011;37855;53.204;6.568;2024-02-15T13:45:41;13.93;;;8.52;;
51800;SDS011;37855;53.204;6.568;2024-02-15T13:48:07;13.50;;;8.50;;
51800;SDS011;37855;53.204;6.568;2024-02-15T13:50:34;13.40;;;7.90;;
51800;SDS011;37855;53.204;6.568;2024-02-15T13:53:00;11.98;;;8.02;;
51800;SDS011;37855;53.204;6.568;2024-02-15T13:55:26;14.13;;;8.10;;
51800;SDS011;37855;53.204;6.568;2024-02-15T13:57:55;12.57;;;7.30;;
51800;SDS011;37855;53.204;6.568;2024-02-15T14:00:21;12.45;;;8.02;;
51800;SDS011;37855;53.204;6.568;2024-02-15T14:02:48;11.80;;;7.63;;
51800;SDS011;37855;53.204;6.568;2024-02-15T14:05:14;12.57;;;7.72;;
51800;SDS011;37855;53.204;6.568;2024-02-15T14:07:42;13.57;;;7.65;;
51800;SDS011;37855;53.204;6.568;2024-02-15T14:10:08;11.05;;;7.30;;
51800;SDS011;37855;53.204;6.568;2024-02-15T14:12:36;15.68;;;7.28;;
51800;SDS011;37855;53.204;6.568;2024-02-15T14:15:03;11.90;;;7.53;;
51800;SDS011;37855;53.204;6.568;2024-02-15T14:17:31;12.35;;;7.55;;
51800;SDS011;37855;53.204;6.568;2024-02-15T14:20:00;12.40;;;7.22;;
51800;SDS011;37855;53.204;6.568;2024-02-15T14:22:36;12.25;;;7.15;;
51800;SDS011;37855;53.204;6.568;2024-02-15T14:25:18;11.73;;;7.30;;
51800;SDS011;37855;53.204;6.568;2024-02-15T14:27:44;14.27;;;7.30;;
51800;SDS011;37855;53.204;6.568;2024-02-15T14:30:10;11.48;;;7.20;;
51800;SDS011;37855;53.204;6.568;2024-02-15T14:32:54;12.32;;;7.13;;
51800;SDS011;37855;53.204;6.568;2024-02-15T14:35:27;14.63;;;7.38;;
51800;SDS011;37855;53.204;6.568;2024-02-15T14:37:57;12.80;;;7.10;;
51800;SDS011;37855;53.204;6.568;2024-02-15T14:40:23;10.18;;;6.55;;
51800;SDS011;37855;53.204;6.568;2024-02-15T14:42:48;10.35;;;6.40;;
51800;SDS011;37855;53.204;6.568;2024-02-15T14:45:14;9.70;;;6.20;;
51800;SDS011;37855;53.204;6.568;2024-02-15T14:47:40;10.00;;;6.13;;
51800;SDS011;37855;53.204;6.568;2024-02-15T14:50:07;11.52;;;6.35;;
51800;SDS011;37855;53.204;6.568;2024-02-15T14:52:36;13.20;;;6.78;;
51800;SDS011;37855;53.204;6.568;2024-02-15T14:55:03;12.20;;;6.38;;
51800;SDS011;37855;53.204;6.568;2024-02-15T14:57:30;10.10;;;6.93;;